Time;durP1;ratioP1;P1;durP2;ratioP2;P2;SDS_P1;SDS_P2;PMS_P1;PMS_P2;Temp;Humidity;BMP_temperature;BMP_pressure;BME280_temperature;BME280_humidity;BME280_pressure;Samples;Min_cycle;Max_cycle;Signal;HPM_P1;HPM_P2
2021/09/30 00:00:52;;;;;;;4.53;1.70;;;;;;;8.36;98.64;101017.25;5035141;28;20049;-74
2021/09/30 00:03:19;;;;;;;3.72;1.70;;;;;;;8.31;98.02;101019.22;5035412;28;20029;-74
2021/09/30 00:05:46;;;;;;;5.95;2.28;;;;;;;8.32;98.37;101019.16;5035713;28;20060;-73
2021/09/30 00:08:13;;;;;;;5.32;2.05;;;;;;;8.36;97.53;101025.25;5037431;28;20041;-74
2021/09/30 00:10:47;;;;;;;8.55;2.60;;;;;;;8.37;98.38;101029.63;5034060;28;20079;-75
2021/09/30 00:13:38;;;;;;;5.90;2.00;;;;;;;8.39;97.62;101035.78;5033797;28;20049;-74
2021/09/30 00:32:52;;;;;;;6.68;2.50;;;;;;;8.29;98.05;101041.44;5054680;28;20041;-75
2021/09/30 00:46:01;;;;;;;9.80;2.45;;;;;;;8.31;97.53;101037.84;5040049;28;20061;-75
2021/09/30 00:48:44;;;;;;;8.05;2.67;;;;;;;8.34;97.54;101048.38;5037428;28;20080;-74
2021/09/30 01:26:07;;;;;;;9.48;2.15;;;;;;;8.23;97.73;101054.09;5036637;28;20374;-74
2021/09/30 02:40:08;;;;;;;11.13;2.30;;;;;;;7.92;97.28;101092.41;5035165;28;20076;-74
2021/09/30 02:59:48;;;;;;;5.72;1.85;;;;;;;7.83;97.62;101077.63;5034786;28;20141;-74
2021/09/30 03:02:20;;;;;;;5.70;2.00;;;;;;;7.87;96.51;101081.94;5018790;28;20098;-73
2021/09/30 03:04:48;;;;;;;10.95;2.60;;;;;;;7.86;96.24;101083.72;5033913;28;20096;-75
2021/09/30 03:07:17;;;;;;;7.13;2.33;;;;;;;7.71;96.76;101069.19;5034648;28;20055;-72
2021/09/30 03:09:47;;;;;;;4.03;2.35;;;;;;;7.79;97.39;101084.84;5051280;28;20049;-72
2021/09/30 03:12:28;;;;;;;6.20;1.88;;;;;;;7.75;97.75;101078.78;5018764;28;20056;-72
2021/09/30 03:15:09;;;;;;;12.90;2.70;;;;;;;7.75;98.31;101094.72;5037299;28;20437;-75
2021/09/30 03:17:52;;;;;;;6.95;2.05;;;;;;;7.73;98.12;101087.72;5053414;28;20144;-74
2021/09/30 03:23:21;;;;;;;7.70;1.98;;;;;;;7.65;98.38;101093.31;5053409;28;20045;-73
2021/09/30 03:25:51;;;;;;;5.18;1.50;;;;;;;7.59;98.57;101088.22;5036540;28;20060;-74
2021/09/30 03:28:21;;;;;;;10.00;2.13;;;;;;;7.66;98.34;101097.72;5037051;28;20044;-74
2021/09/30 03:30:53;;;;;;;4.38;1.98;;;;;;;7.73;98.29;101091.25;5036495;28;20045;-72
2021/09/30 03:33:22;;;;;;;6.75;2.03;;;;;;;7.84;96.88;101100.66;5053156;28;20141;-73
2021/09/30 03:36:06;;;;;;;10.57;2.28;;;;;;;7.95;96.46;101109.13;5003871;28;20053;-74
2021/09/30 03:38:34;;;;;;;8.15;1.92;;;;;;;7.94;96.49;101104.72;5016738;28;20076;-73
2021/09/30 03:41:02;;;;;;;6.00;2.58;;;;;;;7.96;96.84;101105.53;5033252;28;20057;-73
2021/09/30 03:43:30;;;;;;;9.75;2.20;;;;;;;7.95;96.41;101103.81;5016641;28;20139;-74
2021/09/30 03:45:59;;;;;;;6.93;1.58;;;;;;;8.06;97.49;101095.44;5032922;28;20083;-76
2021/09/30 03:48:27;;;;;;;4.63;1.67;;;;;;;8.12;96.75;101102.34;5022125;28;20053;-70
2021/09/30 03:53:45;;;;;;;8.48;2.13;;;;;;;8.20;96.23;101102.06;5018618;28;20111;-72
2021/09/30 04:01:42;;;;;;;4.53;1.65;;;;;;;8.24;95.75;101104.56;5029391;28;20058;-75
2021/09/30 04:04:08;;;;;;;7.35;2.08;;;;;;;8.24;95.21;101114.34;5053680;28;20040;-72
2021/09/30 04:06:35;;;;;;;10.48;2.50;;;;;;;8.22;94.60;101111.72;5053785;28;20162;-74
2021/09/30 04:09:02;;;;;;;7.00;1.73;;;;;;;8.14;94.75;101113.78;5053922;28;20056;-75
2021/09/30 04:11:29;;;;;;;8.18;2.38;;;;;;;8.19;96.42;101110.97;5053930;28;20049;-72
2021/09/30 04:13:56;;;;;;;10.45;2.28;;;;;;;8.15;96.37;101113.75;5053959;28;20033;-72
2021/09/30 04:16:26;;;;;;;5.45;1.75;;;;;;;8.08;96.17;101116.66;5053784;28;20053;-72
2021/09/30 04:18:53;;;;;;;6.57;1.90;;;;;;;8.08;96.67;101111.34;5038239;28;20095;-73
2021/09/30 04:21:20;;;;;;;8.43;2.38;;;;;;;7.97;96.66;101117.94;5037849;28;20387;-75
2021/09/30 04:23:47;;;;;;;6.75;2.10;;;;;;;7.88;96.20;101118.22;5049489;28;20056;-73
2021/09/30 04:26:14;;;;;;;9.13;2.20;;;;;;;7.74;96.79;101106.28;5057834;28;20055;-74
2021/09/30 04:28:40;;;;;;;6.53;2.03;;;;;;;7.71;96.51;101114.38;5057704;28;20098;-76
2021/09/30 04:31:07;;;;;;;7.88;2.13;;;;;;;7.75;96.80;101131.94;5057147;28;20486;-74
2021/09/30 04:33:45;;;;;;;4.70;1.90;;;;;;;7.68;97.46;101127.75;5057501;28;20044;-72
2021/09/30 04:36:12;;;;;;;6.05;1.95;;;;;;;7.66;97.86;101129.59;5057572;28;20049;-74
2021/09/30 04:38:39;;;;;;;6.57;2.30;;;;;;;7.59;98.25;101131.56;5057795;28;20075;-73
2021/09/30 04:41:06;;;;;;;8.75;3.35;;;;;;;7.62;98.42;101133.25;5057311;28;20079;-74
2021/09/30 04:43:33;;;;;;;8.45;2.15;;;;;;;7.59;98.51;101133.38;5057294;28;20132;-73
2021/09/30 04:46:01;;;;;;;6.63;2.13;;;;;;;7.62;98.44;101143.88;5056595;28;20439;-73
2021/09/30 04:48:32;;;;;;;9.27;2.35;;;;;;;7.47;97.33;101124.03;5057355;28;20049;-76
2021/09/30 04:51:09;;;;;;;6.93;1.80;;;;;;;7.56;97.75;101146.75;5056566;28;20041;-77
2021/09/30 04:53:37;;;;;;;9.27;2.28;;;;;;;7.48;98.13;101136.38;5058404;28;20057;-77
2021/09/30 04:56:04;;;;;;;7.32;2.13;;;;;;;7.51;98.03;101140.72;5058311;28;20131;-75
2021/09/30 04:58:36;;;;;;;5.90;2.15;;;;;;;7.48;98.89;101144.34;5057012;28;20045;-76
2021/09/30 05:01:04;;;;;;;12.13;3.20;;;;;;;7.50;98.10;101149.59;5056182;28;20139;-75
2021/09/30 05:03:32;;;;;;;5.40;2.28;;;;;;;7.36;97.40;101132.34;5055276;28;20073;-77
2021/09/30 05:05:58;;;;;;;4.75;1.95;;;;;;;7.42;98.53;101145.41;5058103;28;20053;-72
2021/09/30 05:08:28;;;;;;;7.30;1.80;;;;;;;7.40;98.18;101144.59;5056868;28;20295;-73
2021/09/30 05:10:56;;;;;;;6.95;2.00;;;;;;;7.38;98.22;101143.78;5056802;28;20049;-71
2021/09/30 05:13:35;;;;;;;4.20;1.52;;;;;;;7.28;98.75;101134.34;5046650;28;20041;-77
2021/09/30 05:16:12;;;;;;;8.43;2.10;;;;;;;7.31;98.82;101144.88;5055084;28;20053;-75
2021/09/30 05:19:11;;;;;;;9.35;1.92;;;;;;;7.29;98.90;101146.69;5045470;28;20056;-74
2021/09/30 05:21:38;;;;;;;9.40;3.00;;;;;;;7.30;99.45;101145.81;5051154;28;20141;-75
2021/09/30 05:24:05;;;;;;;5.78;2.17;;;;;;;7.25;98.84;101147.72;5056155;28;20041;-73
2021/09/30 05:26:31;;;;;;;6.65;2.08;;;;;;;7.27;98.60;101151.19;5038949;28;20125;-71
2021/09/30 05:29:00;;;;;;;13.30;2.17;;;;;;;7.25;98.48;101150.38;5033221;28;20045;-71
2021/09/30 05:31:31;;;;;;;6.70;2.15;;;;;;;7.28;98.37;101153.81;5052951;28;20049;-73
2021/09/30 05:34:17;;;;;;;7.82;1.92;;;;;;;7.30;98.20;101164.41;5050352;28;20050;-71
2021/09/30 05:36:44;;;;;;;7.00;2.30;;;;;;;7.24;98.40;101165.44;5029031;28;20053;-73
2021/09/30 05:39:10;;;;;;;8.77;2.05;;;;;;;7.32;98.77;101163.41;5050328;28;20091;-74
2021/09/30 05:41:40;;;;;;;6.28;2.30;;;;;;;7.29;98.95;101173.25;5044953;28;20076;-74
2021/09/30 05:44:10;;;;;;;6.32;1.73;;;;;;;7.28;99.46;101174.19;5055743;28;20063;-74
2021/09/30 05:46:45;;;;;;;11.45;2.15;;;;;;;7.30;98.97;101173.22;5055882;28;20464;-74
2021/09/30 05:49:13;;;;;;;11.07;2.40;;;;;;;7.25;98.73;101166.31;5055673;28;20063;-76
2021/09/30 05:51:41;;;;;;;10.65;2.95;;;;;;;7.32;99.26;101171.38;5056094;28;20345;-74
2021/09/30 05:54:32;;;;;;;10.93;2.30;;;;;;;7.25;99.55;101168.97;5072238;28;20354;-73
2021/09/30 05:57:12;;;;;;;5.60;1.67;;;;;;;7.27;99.26;101169.78;5049960;28;20540;-74
2021/09/30 05:59:40;;;;;;;7.32;2.40;;;;;;;7.27;99.71;101175.09;5033124;28;20104;-75
2021/09/30 06:13:00;;;;;;;6.22;1.88;;;;;;;7.37;98.87;101157.09;5067796;28;20064;-72
2021/09/30 06:15:33;;;;;;;9.40;1.70;;;;;;;7.45;98.63;101173.66;5050269;28;20041;-73
2021/09/30 06:18:01;;;;;;;6.57;2.30;;;;;;;7.55;98.07;101176.88;5041119;28;20050;-72
2021/09/30 06:20:32;;;;;;;6.07;1.85;;;;;;;7.53;97.62;101181.38;5019001;28;20050;-72
2021/09/30 06:22:58;;;;;;;5.95;1.77;;;;;;;7.56;97.97;101179.50;5069518;28;20063;-70
2021/09/30 06:25:25;;;;;;;10.13;1.73;;;;;;;7.69;97.79;101172.00;5037452;28;20044;-71
2021/09/30 06:27:53;;;;;;;5.28;2.20;;;;;;;7.69;98.24;101169.34;5053994;28;20041;-72
2021/09/30 06:30:20;;;;;;;8.00;2.97;;;;;;;7.80;97.04;101165.47;5044299;28;20343;-70
2021/09/30 06:32:53;;;;;;;4.70;2.22;;;;;;;7.83;96.08;101176.88;5039387;28;20073;-71
2021/09/30 06:35:49;;;;;;;7.75;1.70;;;;;;;7.91;96.27;101173.97;5026584;28;20107;-71
2021/09/30 06:38:36;;;;;;;4.50;1.52;;;;;;;8.01;95.19;101171.88;5034063;28;20431;-71
2021/09/30 06:41:06;;;;;;;5.03;1.70;;;;;;;8.04;96.01;101178.84;5038916;28;20045;-69
2021/09/30 06:43:34;;;;;;;13.20;2.58;;;;;;;8.10;96.14;101175.97;5048718;28;20381;-72
2021/09/30 06:46:19;;;;;;;9.50;1.85;;;;;;;8.15;94.50;101176.69;5054035;28;20051;-73
2021/09/30 06:48:55;;;;;;;11.43;2.45;;;;;;;8.15;94.82;101168.72;5053181;28;20080;-69
2021/09/30 06:51:43;;;;;;;4.82;1.60;;;;;;;8.13;95.32;101174.06;5054000;28;20063;-71
2021/09/30 06:54:10;;;;;;;5.10;1.50;;;;;;;8.13;94.51;101167.91;5038228;28;20128;-70
2021/09/30 06:56:55;;;;;;;7.03;1.63;;;;;;;8.22;94.71;101166.72;5052750;28;20107;-70
2021/09/30 06:59:40;;;;;;;9.70;1.90;;;;;;;8.24;94.10;101168.38;5055289;28;20056;-71
2021/09/30 07:02:26;;;;;;;11.00;2.03;;;;;;;8.31;94.17;101173.50;5050849;28;20076;-71
2021/09/30 07:05:22;;;;;;;9.77;1.75;;;;;;;8.34;94.63;101170.75;5050858;28;20049;-73
2021/09/30 07:08:07;;;;;;;10.25;1.98;;;;;;;8.40;93.86;101168.72;5042741;28;20362;-72
2021/09/30 07:10:34;;;;;;;7.55;1.35;;;;;;;8.48;93.60;101172.88;5054581;28;20410;-69
2021/09/30 07:13:01;;;;;;;4.65;1.65;;;;;;;8.53;94.09;101173.63;5055630;28;20334;-71
2021/09/30 07:15:28;;;;;;;10.40;2.03;;;;;;;8.54;92.77;101178.03;5052104;28;20341;-71
2021/09/30 07:17:56;;;;;;;5.53;1.38;;;;;;;8.55;92.63;101177.97;5019181;28;20039;-71
2021/09/30 07:20:23;;;;;;;6.20;1.60;;;;;;;8.62;92.28;101177.75;5041049;28;20037;-71
2021/09/30 07:22:50;;;;;;;6.97;1.63;;;;;;;8.61;93.30;101174.22;5050035;28;20037;-71
2021/09/30 07:25:17;;;;;;;5.30;1.70;;;;;;;8.63;94.48;101176.81;5053662;28;20037;-75
2021/09/30 07:27:43;;;;;;;4.05;1.40;;;;;;;8.66;93.40;101182.06;5051371;28;20056;-70
2021/09/30 07:30:11;;;;;;;7.65;1.67;;;;;;;8.69;93.34;101189.91;5053837;28;20122;-73
2021/09/30 07:32:37;;;;;;;12.18;1.88;;;;;;;8.67;93.71;101178.47;5055099;28;20054;-69
2021/09/30 07:35:04;;;;;;;7.68;2.08;;;;;;;8.75;93.29;101172.84;5055203;28;20052;-71
2021/09/30 07:37:31;;;;;;;8.23;1.70;;;;;;;8.79;93.85;101194.00;5037667;28;20049;-71
2021/09/30 07:39:58;;;;;;;4.97;1.48;;;;;;;8.84;93.02;101183.16;5054719;28;20041;-72
2021/09/30 07:42:25;;;;;;;9.32;1.75;;;;;;;8.94;93.08;101186.34;5042539;28;20064;-71
2021/09/30 07:44:52;;;;;;;6.57;1.38;;;;;;;9.09;93.11;101185.75;5047836;28;20393;-71
2021/09/30 07:47:19;;;;;;;3.95;1.50;;;;;;;9.16;92.48;101186.38;5053890;28;20045;-70
2021/09/30 07:49:46;;;;;;;7.38;1.70;;;;;;;9.21;91.32;101187.06;5052118;28;20048;-71
2021/09/30 07:52:12;;;;;;;8.27;2.00;;;;;;;9.32;90.98;101183.97;5043151;28;20045;-74
2021/09/30 07:54:39;;;;;;;7.20;1.77;;;;;;;9.37;90.60;101186.47;5042774;28;20040;-72
2021/09/30 07:57:06;;;;;;;10.45;1.70;;;;;;;9.48;90.89;101186.06;5041605;28;20044;-74
2021/09/30 07:59:33;;;;;;;6.18;1.98;;;;;;;9.53;90.39;101180.53;5048411;28;20119;-72
2021/09/30 08:02:00;;;;;;;5.57;1.67;;;;;;;9.58;89.53;101192.75;5051258;28;20064;-72
2021/09/30 08:04:27;;;;;;;7.30;2.28;;;;;;;9.70;90.04;101180.72;5018870;28;20461;-73
2021/09/30 08:06:54;;;;;;;8.15;1.92;;;;;;;9.75;89.65;101191.22;5050467;28;20052;-72
2021/09/30 08:09:21;;;;;;;8.60;1.60;;;;;;;9.85;89.39;101187.22;5039668;28;20382;-73
2021/09/30 08:11:51;;;;;;;10.63;1.75;;;;;;;9.87;88.99;101196.00;5046852;28;20433;-70
2021/09/30 08:14:18;;;;;;;6.57;1.77;;;;;;;9.87;89.07;101203.16;5051822;28;20053;-70
2021/09/30 08:16:46;;;;;;;10.68;1.63;;;;;;;9.92;88.24;101201.19;5041422;28;20056;-74
2021/09/30 08:19:14;;;;;;;5.00;1.65;;;;;;;9.88;87.42;101202.22;5036250;28;20399;-74
2021/09/30 08:21:44;;;;;;;4.72;1.30;;;;;;;9.89;87.97;101207.50;5051887;28;20488;-73
2021/09/30 08:24:16;;;;;;;8.45;1.63;;;;;;;9.85;89.02;101203.22;5045424;28;20041;-71
2021/09/30 08:26:45;;;;;;;5.40;1.40;;;;;;;9.80;88.93;101194.53;5043662;28;20045;-75
2021/09/30 08:29:18;;;;;;;7.78;1.50;;;;;;;9.82;88.76;101207.81;5036632;28;20091;-75
2021/09/30 08:31:46;;;;;;;7.65;1.75;;;;;;;9.84;89.27;101201.47;5039916;28;20048;-72
2021/09/30 08:34:13;;;;;;;16.05;2.58;;;;;;;9.97;89.12;101207.16;5036202;28;20051;-76
2021/09/30 08:36:39;;;;;;;5.93;1.40;;;;;;;10.07;87.90;101207.66;5054470;28;20311;-75
2021/09/30 08:39:08;;;;;;;6.80;1.40;;;;;;;10.18;88.36;101210.75;5051719;28;20045;-76
2021/09/30 08:41:36;;;;;;;11.70;1.73;;;;;;;10.24;88.28;101214.09;5038974;28;20045;-72
2021/09/30 08:44:05;;;;;;;5.65;1.75;;;;;;;10.35;87.35;101210.94;5039118;28;20041;-76
2021/09/30 08:46:33;;;;;;;7.20;1.45;;;;;;;10.36;86.96;101202.88;5041617;28;20080;-74
2021/09/30 08:49:01;;;;;;;7.78;1.60;;;;;;;10.50;86.69;101214.78;5046640;28;20132;-76
2021/09/30 08:51:28;;;;;;;7.32;1.73;;;;;;;10.62;85.79;101219.56;5036739;28;20439;-76
2021/09/30 08:53:55;;;;;;;7.10;1.48;;;;;;;10.77;84.30;101214.47;5052447;28;20049;-76
2021/09/30 08:56:22;;;;;;;7.57;1.85;;;;;;;10.86;85.63;101222.94;5042437;28;20041;-75
2021/09/30 08:58:51;;;;;;;4.72;1.25;;;;;;;11.03;84.19;101220.44;5039570;28;20427;-76
2021/09/30 09:01:18;;;;;;;11.10;1.80;;;;;;;11.10;82.10;101217.44;5038931;28;20051;-72
2021/09/30 09:03:47;;;;;;;8.35;1.42;;;;;;;11.18;81.12;101206.41;5044057;28;20089;-74
2021/09/30 09:06:45;;;;;;;5.65;1.40;;;;;;;11.25;80.24;101223.88;5043788;28;20505;-74
2021/09/30 09:09:25;;;;;;;9.73;1.70;;;;;;;11.26;79.51;101206.91;5041981;28;20068;-76
2021/09/30 09:11:55;;;;;;;5.00;1.10;;;;;;;11.40;79.19;101213.41;5054185;28;20072;-74
2021/09/30 09:14:24;;;;;;;7.35;1.40;;;;;;;11.56;79.16;101216.19;5040166;28;20041;-75
2021/09/30 09:17:00;;;;;;;7.13;1.27;;;;;;;11.63;78.35;101216.75;5046810;28;20048;-74
2021/09/30 09:19:41;;;;;;;6.28;1.30;;;;;;;11.60;78.05;101219.59;5048753;28;20045;-72
2021/09/30 09:22:35;;;;;;;11.30;1.77;;;;;;;11.62;76.96;101223.06;5068061;28;20092;-72
2021/09/30 09:25:10;;;;;;;7.72;1.40;;;;;;;11.52;76.94;101212.81;5036918;28;20461;-72
2021/09/30 09:27:59;;;;;;;7.43;1.48;;;;;;;11.53;77.07;101213.66;5049759;28;20098;-72
2021/09/30 09:30:36;;;;;;;8.57;1.83;;;;;;;11.50;78.02;101212.00;5061169;28;20048;-71
2021/09/30 09:33:09;;;;;;;6.60;1.05;;;;;;;11.74;77.64;101213.56;5053053;28;20469;-71
2021/09/30 09:35:59;;;;;;;5.20;1.20;;;;;;;11.85;77.17;101215.69;5051570;28;20041;-70
2021/09/30 09:38:30;;;;;;;6.00;1.33;;;;;;;11.99;77.82;101210.53;5044842;28;20049;-71
2021/09/30 09:41:05;;;;;;;;;;;;;;;12.01;76.25;101207.78;5037651;28;20116;-71
2021/09/30 09:43:44;;;;;;;8.90;1.40;;;;;;;12.11;74.54;101203.75;5037297;28;19921;-72
2021/09/30 09:46:14;;;;;;;6.10;1.23;;;;;;;12.14;71.72;101178.63;5051989;28;20088;-69
2021/09/30 09:49:06;;;;;;;5.03;1.07;;;;;;;12.36;73.24;101202.47;5035614;28;20471;-70
2021/09/30 09:51:52;;;;;;;8.23;1.40;;;;;;;12.54;71.22;101187.25;5034596;28;20523;-72
2021/09/30 09:54:28;;;;;;;6.38;1.20;;;;;;;12.55;68.51;101188.13;5050941;28;20049;-73
2021/09/30 09:57:09;;;;;;;5.45;1.08;;;;;;;12.66;69.57;101190.22;5034293;28;20053;-71
2021/09/30 09:59:41;;;;;;;6.18;1.55;;;;;;;12.72;69.23;101205.97;5051693;28;20048;-73
2021/09/30 10:02:07;;;;;;;8.07;1.83;;;;;;;12.77;68.63;101187.84;5043418;28;20041;-72
2021/09/30 10:04:35;;;;;;;5.35;1.73;;;;;;;12.88;67.84;101190.81;5035992;28;20111;-73
2021/09/30 10:07:03;;;;;;;9.85;1.38;;;;;;;12.76;69.01;101180.75;5036886;28;20105;-71
2021/09/30 10:09:30;;;;;;;10.70;1.58;;;;;;;12.76;68.24;101188.78;5057219;28;20449;-72
2021/09/30 10:11:57;;;;;;;7.00;2.00;;;;;;;12.73;66.96;101179.09;5056863;28;20041;-72
2021/09/30 10:14:24;;;;;;;7.10;1.40;;;;;;;12.91;68.81;101176.34;5056701;28;20123;-72
2021/09/30 10:16:51;;;;;;;8.65;1.27;;;;;;;13.15;67.42;101176.84;5055978;28;20311;-72
2021/09/30 10:19:18;;;;;;;8.60;1.30;;;;;;;13.43;66.52;101175.28;5055560;28;20071;-72
2021/09/30 10:21:45;;;;;;;4.10;1.02;;;;;;;13.50;66.33;101169.63;5055570;28;20048;-72
2021/09/30 10:24:17;;;;;;;4.95;1.20;;;;;;;13.65;65.93;101165.16;5041097;28;20042;-71
2021/09/30 10:26:55;;;;;;;9.30;1.35;;;;;;;13.61;64.55;101171.66;5037672;28;20317;-71
2021/09/30 10:29:45;;;;;;;2.53;0.90;;;;;;;13.70;66.01;101172.00;5036807;28;20129;-72
2021/09/30 10:32:18;;;;;;;7.57;1.45;;;;;;;13.50;64.45;101172.28;5050307;28;20129;-72
2021/09/30 10:34:47;;;;;;;6.05;1.13;;;;;;;13.42;64.16;101168.16;5056031;28;20049;-72
2021/09/30 10:37:18;;;;;;;8.52;1.45;;;;;;;13.48;65.42;101156.28;5055292;28;20040;-74
2021/09/30 10:40:04;;;;;;;7.47;1.48;;;;;;;13.66;65.92;101173.13;5036098;28;20042;-73
2021/09/30 10:42:53;;;;;;;7.22;1.20;;;;;;;13.64;64.93;101168.78;5053169;28;20110;-72
2021/09/30 10:45:25;;;;;;;7.75;2.05;;;;;;;13.62;65.36;101158.16;5054342;28;20106;-72
2021/09/30 10:48:03;;;;;;;10.93;1.30;;;;;;;13.71;64.76;101157.63;5055043;28;20064;-73
2021/09/30 10:50:47;;;;;;;8.00;1.48;;;;;;;13.59;64.66;101139.56;5043947;28;20052;-73
2021/09/30 10:53:14;;;;;;;13.63;1.83;;;;;;;13.69;65.67;101151.47;5049732;28;20052;-71
2021/09/30 10:55:41;;;;;;;6.45;1.38;;;;;;;13.65;64.65;101146.38;5055217;28;20430;-72
2021/09/30 10:58:23;;;;;;;9.15;1.27;;;;;;;13.54;64.34;101134.47;5054247;28;20044;-74
2021/09/30 11:00:57;;;;;;;5.18;1.20;;;;;;;13.50;64.56;101142.78;5055774;28;20037;-73
2021/09/30 11:03:25;;;;;;;7.50;1.50;;;;;;;13.47;64.32;101129.53;5054881;28;20040;-72
2021/09/30 11:06:07;;;;;;;11.38;1.63;;;;;;;13.61;65.33;101143.00;5031219;28;20041;-72
2021/09/30 11:08:34;;;;;;;6.68;1.27;;;;;;;13.71;65.58;101120.06;5035896;28;20042;-71
2021/09/30 11:11:08;;;;;;;7.78;1.50;;;;;;;13.80;63.90;101133.91;5046968;28;20052;-70
2021/09/30 11:13:47;;;;;;;7.10;1.42;;;;;;;13.97;65.02;101133.78;5055934;28;20053;-73
2021/09/30 11:16:16;;;;;;;5.10;1.45;;;;;;;13.91;63.68;101136.81;5049405;28;20049;-71
2021/09/30 11:18:51;;;;;;;10.52;1.48;;;;;;;14.09;64.67;101129.47;5034602;28;20092;-71
2021/09/30 11:21:30;;;;;;;7.40;1.50;;;;;;;14.10;65.07;101125.81;5043773;28;20048;-71
2021/09/30 11:23:57;;;;;;;9.52;1.50;;;;;;;14.13;65.21;101128.31;5034418;28;20048;-74
2021/09/30 11:26:26;;;;;;;6.78;1.73;;;;;;;14.16;64.97;101115.69;5034007;28;20049;-74
2021/09/30 11:28:54;;;;;;;10.00;1.50;;;;;;;14.33;65.21;101122.69;5035300;28;20091;-74
2021/09/30 11:31:21;;;;;;;4.78;1.35;;;;;;;14.35;66.08;101124.34;5034204;28;20136;-72
2021/09/30 11:33:52;;;;;;;8.35;1.38;;;;;;;14.27;65.20;101126.59;5035096;28;20363;-72
2021/09/30 11:36:19;;;;;;;;;;;;;;;14.30;65.16;101114.81;5056048;28;20056;-74
2021/09/30 11:38:49;;;;;;;10.43;1.58;;;;;;;14.23;64.13;101131.31;5042714;28;20305;-74
2021/09/30 11:41:15;;;;;;;6.28;1.85;;;;;;;14.21;64.09;101119.81;5035348;28;20468;-73
2021/09/30 11:43:47;;;;;;;9.63;1.23;;;;;;;14.20;65.54;101118.06;5034931;28;20041;-72
2021/09/30 11:46:31;;;;;;;10.82;1.40;;;;;;;14.14;65.73;101107.72;5035330;28;20056;-72
2021/09/30 11:49:04;;;;;;;8.88;1.30;;;;;;;14.20;67.07;101115.38;5035305;28;20120;-71
2021/09/30 11:51:42;;;;;;;8.10;1.30;;;;;;;14.29;64.85;101115.78;5046633;28;20045;-74
2021/09/30 11:54:17;;;;;;;12.15;1.40;;;;;;;14.23;66.79;101112.50;5055200;28;20049;-72
2021/09/30 11:56:52;;;;;;;5.85;1.30;;;;;;;14.13;65.56;101114.88;5017661;28;20049;-71
2021/09/30 11:59:22;;;;;;;7.43;1.48;;;;;;;14.04;64.16;101099.34;5035139;28;20095;-71
2021/09/30 12:01:51;;;;;;;6.63;1.02;;;;;;;14.01;65.37;101096.00;5035132;28;20060;-72
2021/09/30 12:04:29;;;;;;;8.27;1.45;;;;;;;13.93;65.75;101097.31;5035399;28;20339;-71
2021/09/30 12:06:57;;;;;;;7.55;1.33;;;;;;;13.96;66.73;101104.31;5017509;28;20050;-73
2021/09/30 12:09:24;;;;;;;8.15;1.63;;;;;;;13.82;65.27;101100.66;5047420;28;20055;-72
2021/09/30 12:11:53;;;;;;;5.38;1.42;;;;;;;13.69;66.86;101100.50;5053559;28;20041;-71
2021/09/30 12:14:21;;;;;;;3.58;1.02;;;;;;;13.63;65.79;101095.53;5054754;28;20049;-71
2021/09/30 12:17:00;;;;;;;11.20;1.52;;;;;;;13.35;64.86;101072.94;5052125;28;20069;-74
2021/09/30 12:19:40;;;;;;;8.23;1.80;;;;;;;13.50;66.57;101094.50;5033955;28;20367;-74
2021/09/30 12:22:13;;;;;;;4.40;1.05;;;;;;;13.41;66.35;101102.09;5034331;28;20049;-73
2021/09/30 12:24:43;;;;;;;7.57;1.70;;;;;;;13.42;66.33;101102.97;5053261;28;20123;-72
2021/09/30 12:27:11;;;;;;;5.10;1.20;;;;;;;13.37;67.57;101092.50;5051764;28;20048;-74
2021/09/30 12:29:40;;;;;;;4.47;0.98;;;;;;;13.36;67.86;101097.97;5042349;28;20052;-75
2021/09/30 12:32:10;;;;;;;5.93;1.50;;;;;;;13.41;67.10;101103.91;5053532;28;20041;-73
2021/09/30 12:34:38;;;;;;;10.43;1.90;;;;;;;13.36;67.42;101098.84;5049603;28;20041;-71
2021/09/30 12:37:06;;;;;;;4.10;1.27;;;;;;;13.40;67.52;101089.63;5071542;28;20079;-72
2021/09/30 12:39:33;;;;;;;4.15;1.20;;;;;;;13.44;68.71;101082.28;5036573;28;20053;-73
2021/09/30 12:42:15;;;;;;;5.40;1.20;;;;;;;13.56;67.95;101086.09;5062720;28;20044;-73
2021/09/30 12:44:50;;;;;;;6.93;1.00;;;;;;;13.44;67.67;101079.59;5056502;28;20056;-72
2021/09/30 12:47:38;;;;;;;7.63;1.40;;;;;;;13.44;67.66;101069.75;5056112;28;20324;-72
2021/09/30 12:50:34;;;;;;;4.20;1.15;;;;;;;13.53;68.09;101067.50;5056274;28;20040;-73
2021/09/30 12:53:02;;;;;;;8.43;1.55;;;;;;;13.64;67.55;101065.06;5054281;28;20041;-72
2021/09/30 12:55:30;;;;;;;4.78;1.05;;;;;;;13.60;67.03;101062.63;5035849;28;20058;-72
2021/09/30 12:58:01;;;;;;;5.53;1.10;;;;;;;13.66;66.97;101063.13;5035846;28;20045;-72
2021/09/30 13:00:37;;;;;;;5.63;0.85;;;;;;;13.66;68.31;101054.22;5044672;28;20033;-73
2021/09/30 13:03:13;;;;;;;8.18;1.35;;;;;;;13.63;68.38;101057.97;5038004;28;20132;-74
2021/09/30 13:05:53;;;;;;;5.95;1.00;;;;;;;13.73;67.60;101054.72;5037699;28;20044;-71
2021/09/30 13:08:40;;;;;;;6.28;1.00;;;;;;;13.83;68.53;101047.84;5036902;28;20472;-72
2021/09/30 13:11:31;;;;;;;9.85;1.35;;;;;;;13.85;68.13;101046.78;5036278;28;20083;-72
2021/09/30 13:14:21;;;;;;;7.65;1.35;;;;;;;13.94;68.73;101045.38;5036146;28;20053;-71
2021/09/30 13:17:13;;;;;;;11.40;1.23;;;;;;;14.02;68.53;101044.03;5036057;28;20045;-72
2021/09/30 13:19:42;;;;;;;9.18;1.63;;;;;;;14.01;67.46;101045.88;5051422;28;20786;-71
2021/09/30 13:22:12;;;;;;;5.95;1.33;;;;;;;14.19;65.96;101022.38;5056455;28;20389;-76
2021/09/30 13:24:40;;;;;;;9.77;1.73;;;;;;;14.29;66.54;101027.16;5057352;28;20053;-73
2021/09/30 13:27:09;;;;;;;7.63;1.60;;;;;;;14.31;66.97;101023.44;5071694;28;20048;-71
2021/09/30 13:29:43;;;;;;;6.20;0.95;;;;;;;14.35;67.29;101018.72;5040451;28;20132;-72
2021/09/30 13:32:11;;;;;;;9.43;1.70;;;;;;;14.32;65.47;101010.88;5051941;28;20048;-75
2021/09/30 13:34:39;;;;;;;10.13;1.70;;;;;;;14.33;65.73;101012.59;5046595;28;20052;-72
2021/09/30 13:37:06;;;;;;;4.50;1.20;;;;;;;14.44;65.95;101004.69;5056750;28;20413;-70
2021/09/30 13:39:33;;;;;;;6.18;1.30;;;;;;;14.50;65.59;101001.63;5052567;28;20053;-75
2021/09/30 13:42:00;;;;;;;14.00;1.90;;;;;;;14.50;65.83;101001.63;5055289;28;20053;-71
2021/09/30 13:44:29;;;;;;;8.40;1.33;;;;;;;14.63;64.17;100982.03;5056682;28;20112;-73
2021/09/30 13:46:56;;;;;;;4.93;1.10;;;;;;;14.75;64.35;100989.34;5052770;28;20049;-73
2021/09/30 13:49:23;;;;;;;4.80;1.15;;;;;;;14.68;63.36;100985.28;5056036;28;20040;-71
2021/09/30 13:51:50;;;;;;;10.65;2.03;;;;;;;14.69;64.18;100987.00;5056512;28;20049;-72
2021/09/30 13:54:17;;;;;;;10.98;1.50;;;;;;;14.71;63.06;100970.78;5056576;28;20072;-72
2021/09/30 13:56:44;;;;;;;7.72;1.83;;;;;;;14.70;62.32;100972.59;5057174;28;20037;-72
2021/09/30 13:59:10;;;;;;;6.05;1.33;;;;;;;14.78;63.38;100981.06;5057124;28;20052;-72
2021/09/30 14:01:57;;;;;;;5.70;1.38;;;;;;;14.66;63.75;100979.16;5056944;28;20045;-71
2021/09/30 14:04:24;;;;;;;5.43;1.80;;;;;;;14.64;63.24;100973.00;5037157;28;20056;-73
2021/09/30 14:06:55;;;;;;;4.88;1.17;;;;;;;14.52;64.72;100970.19;5037208;28;20042;-72
2021/09/30 14:09:25;;;;;;;7.57;1.50;;;;;;;14.42;65.34;100974.41;5024051;28;20041;-72
2021/09/30 14:11:53;;;;;;;9.23;1.88;;;;;;;14.22;65.97;100947.00;5040039;28;20045;-75
2021/09/30 14:14:20;;;;;;;8.18;1.50;;;;;;;14.22;64.39;100971.16;5056979;28;20052;-76
2021/09/30 14:16:50;;;;;;;5.13;1.27;;;;;;;14.15;64.98;100967.16;5054700;28;20098;-74
2021/09/30 14:19:18;;;;;;;6.40;1.60;;;;;;;14.16;65.80;100974.25;5046768;28;20335;-73
2021/09/30 14:21:46;;;;;;;6.72;1.40;;;;;;;14.21;66.07;100965.88;5032555;28;20073;-72
2021/09/30 14:24:13;;;;;;;8.77;1.33;;;;;;;14.27;67.14;100954.75;5051463;28;20051;-73
2021/09/30 14:26:43;;;;;;;5.72;1.40;;;;;;;14.22;65.08;100964.94;5056374;28;20527;-72
2021/09/30 14:29:16;;;;;;;6.07;1.30;;;;;;;14.27;65.86;100962.81;5055543;28;20073;-73
2021/09/30 14:31:44;;;;;;;7.03;1.35;;;;;;;14.23;64.76;100959.47;5056579;28;20053;-73
2021/09/30 14:34:11;;;;;;;6.85;1.23;;;;;;;14.39;64.59;100958.50;5052084;28;20038;-72
2021/09/30 14:36:38;;;;;;;7.95;1.77;;;;;;;14.32;64.29;100955.34;5052058;28;20330;-72
2021/09/30 14:39:06;;;;;;;4.72;1.17;;;;;;;14.24;66.52;100949.59;5062770;28;20060;-72
2021/09/30 14:41:34;;;;;;;7.20;1.33;;;;;;;14.18;65.34;100950.00;5036318;28;20049;-71
2021/09/30 14:44:02;;;;;;;8.38;1.58;;;;;;;14.20;65.98;100950.75;5019050;28;20111;-72